sensor_id;sensor_type;location;lat;lon;timestamp;P1;durP1;ratioP1;P2;durP2;ratioP2
25349;SDS011;13302;48.796;11.978;2023-02-18T00:02:28;1.30;;;1.30;;
25349;SDS011;13302;48.796;11.978;2023-02-18T00:05:15;1.70;;;1.60;;
25349;SDS011;13302;48.796;11.978;2023-02-18T00:08:02;1.57;;;1.50;;
25349;SDS011;13302;48.796;11.978;2023-02-18T00:10:49;1.70;;;1.60;;
25349;SDS011;13302;48.796;11.978;2023-02-18T00:13:37;1.30;;;1.30;;
25349;SDS011;13302;48.796;11.978;2023-02-18T00:16:24;1.50;;;1.40;;
25349;SDS011;13302;48.796;11.978;2023-02-18T00:19:14;1.30;;;1.30;;
25349;SDS011;13302;48.796;11.978;2023-02-18T00:22:02;1.00;;;1.00;;
25349;SDS011;13302;48.796;11.978;2023-02-18T00:24:49;1.33;;;1.33;;
25349;SDS011;13302;48.796;11.978;2023-02-18T00:27:37;1.10;;;1.10;;
25349;SDS011;13302;48.796;11.978;2023-02-18T00:30:24;1.40;;;1.10;;
25349;SDS011;13302;48.796;11.978;2023-02-18T00:33:11;3.83;;;1.40;;
25349;SDS011;13302;48.796;11.978;2023-02-18T00:36:06;1.30;;;1.30;;
25349;SDS011;13302;48.796;11.978;2023-02-18T00:38:57;1.30;;;1.30;;
25349;SDS011;13302;48.796;11.978;2023-02-18T00:41:45;1.10;;;1.10;;
25349;SDS011;13302;48.796;11.978;2023-02-18T00:44:34;1.03;;;1.03;;
25349;SDS011;13302;48.796;11.978;2023-02-18T00:47:21;1.47;;;1.37;;
25349;SDS011;13302;48.796;11.978;2023-02-18T00:50:08;1.43;;;1.30;;
25349;SDS011;13302;48.796;11.978;2023-02-18T00:52:56;1.10;;;1.10;;
25349;SDS011;13302;48.796;11.978;2023-02-18T00:55:43;1.20;;;1.10;;
25349;SDS011;13302;48.796;11.978;2023-02-18T00:58:33;1.00;;;1.00;;
25349;SDS011;13302;48.796;11.978;2023-02-18T01:01:23;1.30;;;1.27;;
25349;SDS011;13302;48.796;11.978;2023-02-18T01:04:10;1.07;;;1.07;;
25349;SDS011;13302;48.796;11.978;2023-02-18T01:06:57;1.00;;;1.00;;
25349;SDS011;13302;48.796;11.978;2023-02-18T01:09:44;1.17;;;1.17;;
25349;SDS011;13302;48.796;11.978;2023-02-18T01:12:32;1.43;;;1.17;;
25349;SDS011;13302;48.796;11.978;2023-02-18T01:15:20;1.13;;;1.13;;
25349;SDS011;13302;48.796;11.978;2023-02-18T01:18:08;0.97;;;0.90;;
25349;SDS011;13302;48.796;11.978;2023-02-18T01:20:55;1.03;;;1.03;;
25349;SDS011;13302;48.796;11.978;2023-02-18T01:23:43;1.03;;;1.00;;
25349;SDS011;13302;48.796;11.978;2023-02-18T01:26:30;1.20;;;1.20;;
25349;SDS011;13302;48.796;11.978;2023-02-18T01:29:17;2.00;;;1.30;;
25349;SDS011;13302;48.796;11.978;2023-02-18T01:32:04;1.07;;;1.07;;
25349;SDS011;13302;48.796;11.978;2023-02-18T01:34:51;1.13;;;1.13;;
25349;SDS011;13302;48.796;11.978;2023-02-18T01:37:38;1.03;;;1.03;;
25349;SDS011;13302;48.796;11.978;2023-02-18T01:40:26;1.17;;;1.10;;
25349;SDS011;13302;48.796;11.978;2023-02-18T01:43:15;1.30;;;1.10;;
25349;SDS011;13302;48.796;11.978;2023-02-18T01:48:59;1.10;;;1.10;;
25349;SDS011;13302;48.796;11.978;2023-02-18T01:51:55;1.00;;;1.00;;
25349;SDS011;13302;48.796;11.978;2023-02-18T01:54:46;1.23;;;1.03;;
25349;SDS011;13302;48.796;11.978;2023-02-18T01:57:35;1.00;;;1.00;;
25349;SDS011;13302;48.796;11.978;2023-02-18T02:00:24;1.10;;;1.10;;
25349;SDS011;13302;48.796;11.978;2023-02-18T02:03:11;1.00;;;1.00;;
25349;SDS011;13302;48.796;11.978;2023-02-18T02:06:05;1.37;;;1.27;;
25349;SDS011;13302;48.796;11.978;2023-02-18T02:09:00;1.03;;;0.93;;
25349;SDS011;13302;48.796;11.978;2023-02-18T02:11:56;1.10;;;1.10;;
25349;SDS011;13302;48.796;11.978;2023-02-18T02:24:28;0.90;;;0.90;;
25349;SDS011;13302;48.796;11.978;2023-02-18T02:47:00;0.87;;;0.87;;
25349;SDS011;13302;48.796;11.978;2023-02-18T02:50:00;0.90;;;0.90;;
25349;SDS011;13302;48.796;11.978;2023-02-18T02:52:51;0.70;;;0.70;;
25349;SDS011;13302;48.796;11.978;2023-02-18T02:55:43;0.77;;;0.77;;
25349;SDS011;13302;48.796;11.978;2023-02-18T02:58:30;0.83;;;0.83;;
25349;SDS011;13302;48.796;11.978;2023-02-18T03:07:14;0.70;;;0.70;;
25349;SDS011;13302;48.796;11.978;2023-02-18T03:16:47;0.70;;;0.70;;
25349;SDS011;13302;48.796;11.978;2023-02-18T03:19:39;0.80;;;0.80;;
25349;SDS011;13302;48.796;11.978;2023-02-18T03:22:32;0.70;;;0.60;;
25349;SDS011;13302;48.796;11.978;2023-02-18T03:25:25;0.60;;;0.60;;
25349;SDS011;13302;48.796;11.978;2023-02-18T03:28:19;0.70;;;0.70;;
25349;SDS011;13302;48.796;11.978;2023-02-18T03:31:09;0.60;;;0.60;;
25349;SDS011;13302;48.796;11.978;2023-02-18T03:34:02;0.77;;;0.77;;
25349;SDS011;13302;48.796;11.978;2023-02-18T03:36:57;0.70;;;0.70;;
25349;SDS011;13302;48.796;11.978;2023-02-18T03:39:46;0.60;;;0.60;;
25349;SDS011;13302;48.796;11.978;2023-02-18T03:42:38;0.53;;;0.53;;
25349;SDS011;13302;48.796;11.978;2023-02-18T03:45:26;0.70;;;0.70;;
25349;SDS011;13302;48.796;11.978;2023-02-18T03:48:13;0.70;;;0.70;;
25349;SDS011;13302;48.796;11.978;2023-02-18T03:51:00;0.83;;;0.70;;
25349;SDS011;13302;48.796;11.978;2023-02-18T03:53:47;0.60;;;0.60;;
25349;SDS011;13302;48.796;11.978;2023-02-18T03:56:35;0.60;;;0.60;;
25349;SDS011;13302;48.796;11.978;2023-02-18T03:59:23;0.60;;;0.60;;
25349;SDS011;13302;48.796;11.978;2023-02-18T04:02:09;0.70;;;0.70;;
25349;SDS011;13302;48.796;11.978;2023-02-18T04:04:56;0.53;;;0.53;;
25349;SDS011;13302;48.796;11.978;2023-02-18T04:07:44;0.80;;;0.80;;
25349;SDS011;13302;48.796;11.978;2023-02-18T04:10:31;0.70;;;0.70;;
25349;SDS011;13302;48.796;11.978;2023-02-18T04:13:18;0.90;;;0.90;;
25349;SDS011;13302;48.796;11.978;2023-02-18T04:16:05;0.60;;;0.60;;
25349;SDS011;13302;48.796;11.978;2023-02-18T04:18:53;0.90;;;0.90;;
25349;SDS011;13302;48.796;11.978;2023-02-18T04:21:40;0.70;;;0.70;;
25349;SDS011;13302;48.796;11.978;2023-02-18T04:24:27;0.70;;;0.70;;
25349;SDS011;13302;48.796;11.978;2023-02-18T04:27:14;0.83;;;0.83;;
25349;SDS011;13302;48.796;11.978;2023-02-18T04:30:02;2.10;;;0.90;;
25349;SDS011;13302;48.796;11.978;2023-02-18T04:32:49;1.23;;;0.83;;
25349;SDS011;13302;48.796;11.978;2023-02-18T04:35:37;0.93;;;0.60;;
25349;SDS011;13302;48.796;11.978;2023-02-18T04:38:27;0.90;;;0.90;;
25349;SDS011;13302;48.796;11.978;2023-02-18T04:41:15;0.70;;;0.70;;
25349;SDS011;13302;48.796;11.978;2023-02-18T04:44:02;1.40;;;0.87;;
25349;SDS011;13302;48.796;11.978;2023-02-18T04:46:49;0.60;;;0.60;;
25349;SDS011;13302;48.796;11.978;2023-02-18T04:49:36;0.80;;;0.80;;
25349;SDS011;13302;48.796;11.978;2023-02-18T04:52:23;0.90;;;0.70;;
25349;SDS011;13302;48.796;11.978;2023-02-18T04:55:10;0.60;;;0.60;;
25349;SDS011;13302;48.796;11.978;2023-02-18T04:57:57;0.57;;;0.57;;
25349;SDS011;13302;48.796;11.978;2023-02-18T05:00:44;0.67;;;0.67;;
25349;SDS011;13302;48.796;11.978;2023-02-18T05:03:32;0.70;;;0.70;;
25349;SDS011;13302;48.796;11.978;2023-02-18T05:06:19;0.70;;;0.70;;
25349;SDS011;13302;48.796;11.978;2023-02-18T05:09:06;0.87;;;0.87;;
25349;SDS011;13302;48.796;11.978;2023-02-18T05:11:53;1.00;;;1.00;;
25349;SDS011;13302;48.796;11.978;2023-02-18T05:14:40;0.80;;;0.80;;
25349;SDS011;13302;48.796;11.978;2023-02-18T05:17:27;0.70;;;0.70;;
25349;SDS011;13302;48.796;11.978;2023-02-18T05:20:14;0.83;;;0.83;;
25349;SDS011;13302;48.796;11.978;2023-02-18T05:23:01;0.70;;;0.70;;
25349;SDS011;13302;48.796;11.978;2023-02-18T05:25:48;0.90;;;0.90;;
25349;SDS011;13302;48.796;11.978;2023-02-18T05:28:35;0.87;;;0.87;;
25349;SDS011;13302;48.796;11.978;2023-02-18T05:31:22;1.07;;;1.07;;
25349;SDS011;13302;48.796;11.978;2023-02-18T05:34:09;1.40;;;1.30;;
25349;SDS011;13302;48.796;11.978;2023-02-18T05:36:56;1.00;;;1.00;;
25349;SDS011;13302;48.796;11.978;2023-02-18T05:39:44;0.80;;;0.80;;
25349;SDS011;13302;48.796;11.978;2023-02-18T05:42:31;0.90;;;0.90;;
25349;SDS011;13302;48.796;11.978;2023-02-18T05:45:18;0.83;;;0.83;;
25349;SDS011;13302;48.796;11.978;2023-02-18T05:48:05;0.80;;;0.80;;
25349;SDS011;13302;48.796;11.978;2023-02-18T05:50:53;0.80;;;0.80;;
25349;SDS011;13302;48.796;11.978;2023-02-18T05:53:40;0.90;;;0.90;;
25349;SDS011;13302;48.796;11.978;2023-02-18T05:56:27;0.90;;;0.90;;
25349;SDS011;13302;48.796;11.978;2023-02-18T05:59:14;0.77;;;0.77;;
25349;SDS011;13302;48.796;11.978;2023-02-18T06:02:01;3.07;;;1.10;;
25349;SDS011;13302;48.796;11.978;2023-02-18T06:04:48;0.97;;;0.97;;
25349;SDS011;13302;48.796;11.978;2023-02-18T06:07:35;1.00;;;1.00;;
25349;SDS011;13302;48.796;11.978;2023-02-18T06:10:22;0.80;;;0.80;;
25349;SDS011;13302;48.796;11.978;2023-02-18T06:13:09;0.80;;;0.80;;
25349;SDS011;13302;48.796;11.978;2023-02-18T06:15:56;1.60;;;1.47;;
25349;SDS011;13302;48.796;11.978;2023-02-18T06:18:43;1.00;;;1.00;;
25349;SDS011;13302;48.796;11.978;2023-02-18T06:21:30;1.00;;;1.00;;
25349;SDS011;13302;48.796;11.978;2023-02-18T06:24:17;0.90;;;0.90;;
25349;SDS011;13302;48.796;11.978;2023-02-18T06:27:05;0.80;;;0.80;;
25349;SDS011;13302;48.796;11.978;2023-02-18T06:29:52;0.80;;;0.80;;
25349;SDS011;13302;48.796;11.978;2023-02-18T06:32:39;1.13;;;0.83;;
25349;SDS011;13302;48.796;11.978;2023-02-18T06:35:26;1.07;;;0.90;;
25349;SDS011;13302;48.796;11.978;2023-02-18T06:38:13;0.70;;;0.70;;
25349;SDS011;13302;48.796;11.978;2023-02-18T06:41:00;0.70;;;0.70;;
25349;SDS011;13302;48.796;11.978;2023-02-18T06:43:47;0.70;;;0.70;;
25349;SDS011;13302;48.796;11.978;2023-02-18T06:46:34;1.40;;;1.00;;
25349;SDS011;13302;48.796;11.978;2023-02-18T06:49:21;0.80;;;0.80;;
25349;SDS011;13302;48.796;11.978;2023-02-18T06:52:08;1.13;;;0.80;;
25349;SDS011;13302;48.796;11.978;2023-02-18T06:54:55;0.70;;;0.70;;
25349;SDS011;13302;48.796;11.978;2023-02-18T06:57:42;0.60;;;0.60;;
25349;SDS011;13302;48.796;11.978;2023-02-18T07:00:29;0.67;;;0.67;;
25349;SDS011;13302;48.796;11.978;2023-02-18T07:03:17;0.90;;;0.90;;
25349;SDS011;13302;48.796;11.978;2023-02-18T07:06:04;0.80;;;0.80;;
25349;SDS011;13302;48.796;11.978;2023-02-18T07:08:51;0.80;;;0.80;;
25349;SDS011;13302;48.796;11.978;2023-02-18T07:11:38;0.73;;;0.73;;
25349;SDS011;13302;48.796;11.978;2023-02-18T07:14:25;0.80;;;0.80;;
25349;SDS011;13302;48.796;11.978;2023-02-18T07:17:13;0.97;;;0.80;;
25349;SDS011;13302;48.796;11.978;2023-02-18T07:20:00;1.03;;;0.70;;
25349;SDS011;13302;48.796;11.978;2023-02-18T07:22:48;0.80;;;0.80;;
25349;SDS011;13302;48.796;11.978;2023-02-18T07:25:35;0.80;;;0.80;;
25349;SDS011;13302;48.796;11.978;2023-02-18T07:28:22;0.70;;;0.70;;
25349;SDS011;13302;48.796;11.978;2023-02-18T07:31:09;0.73;;;0.73;;
25349;SDS011;13302;48.796;11.978;2023-02-18T07:33:56;0.80;;;0.80;;
25349;SDS011;13302;48.796;11.978;2023-02-18T07:36:43;0.80;;;0.80;;
25349;SDS011;13302;48.796;11.978;2023-02-18T07:39:30;0.80;;;0.80;;
25349;SDS011;13302;48.796;11.978;2023-02-18T07:42:17;0.80;;;0.80;;
25349;SDS011;13302;48.796;11.978;2023-02-18T07:45:05;0.90;;;0.90;;
25349;SDS011;13302;48.796;11.978;2023-02-18T07:47:52;1.00;;;1.00;;
25349;SDS011;13302;48.796;11.978;2023-02-18T07:50:39;1.07;;;1.07;;
25349;SDS011;13302;48.796;11.978;2023-02-18T07:53:27;0.67;;;0.67;;
25349;SDS011;13302;48.796;11.978;2023-02-18T07:56:14;0.90;;;0.90;;
25349;SDS011;13302;48.796;11.978;2023-02-18T07:59:02;0.87;;;0.87;;
25349;SDS011;13302;48.796;11.978;2023-02-18T08:01:49;0.70;;;0.70;;
25349;SDS011;13302;48.796;11.978;2023-02-18T08:04:36;0.73;;;0.73;;
25349;SDS011;13302;48.796;11.978;2023-02-18T08:07:23;0.80;;;0.80;;
25349;SDS011;13302;48.796;11.978;2023-02-18T08:10:10;0.90;;;0.90;;
25349;SDS011;13302;48.796;11.978;2023-02-18T08:12:57;1.00;;;1.00;;
25349;SDS011;13302;48.796;11.978;2023-02-18T08:15:44;0.70;;;0.70;;
25349;SDS011;13302;48.796;11.978;2023-02-18T08:18:31;0.73;;;0.73;;
25349;SDS011;13302;48.796;11.978;2023-02-18T08:21:19;0.60;;;0.60;;
25349;SDS011;13302;48.796;11.978;2023-02-18T08:24:07;0.80;;;0.80;;
25349;SDS011;13302;48.796;11.978;2023-02-18T08:26:54;0.73;;;0.73;;
25349;SDS011;13302;48.796;11.978;2023-02-18T08:29:47;0.93;;;0.93;;
25349;SDS011;13302;48.796;11.978;2023-02-18T08:32:34;0.90;;;0.90;;
25349;SDS011;13302;48.796;11.978;2023-02-18T08:35:21;0.90;;;0.90;;
25349;SDS011;13302;48.796;11.978;2023-02-18T08:38:08;0.93;;;0.90;;
25349;SDS011;13302;48.796;11.978;2023-02-18T08:41:02;0.93;;;0.93;;
25349;SDS011;13302;48.796;11.978;2023-02-18T08:43:50;1.83;;;1.73;;
25349;SDS011;13302;48.796;11.978;2023-02-18T08:46:37;1.00;;;1.00;;
25349;SDS011;13302;48.796;11.978;2023-02-18T08:49:24;1.90;;;1.80;;
25349;SDS011;13302;48.796;11.978;2023-02-18T08:52:12;1.00;;;1.00;;
25349;SDS011;13302;48.796;11.978;2023-02-18T08:54:59;0.60;;;0.60;;
25349;SDS011;13302;48.796;11.978;2023-02-18T08:57:46;0.80;;;0.80;;
25349;SDS011;13302;48.796;11.978;2023-02-18T09:00:34;0.60;;;0.60;;
25349;SDS011;13302;48.796;11.978;2023-02-18T09:03:22;0.77;;;0.77;;
25349;SDS011;13302;48.796;11.978;2023-02-18T09:06:09;0.87;;;0.87;;
25349;SDS011;13302;48.796;11.978;2023-02-18T09:08:57;1.00;;;0.90;;
25349;SDS011;13302;48.796;11.978;2023-02-18T09:11:44;0.80;;;0.80;;
25349;SDS011;13302;48.796;11.978;2023-02-18T09:14:31;1.00;;;1.00;;
25349;SDS011;13302;48.796;11.978;2023-02-18T09:17:18;1.13;;;1.13;;
25349;SDS011;13302;48.796;11.978;2023-02-18T09:20:06;0.90;;;0.90;;
25349;SDS011;13302;48.796;11.978;2023-02-18T09:22:53;1.10;;;1.10;;
25349;SDS011;13302;48.796;11.978;2023-02-18T09:25:40;1.30;;;1.30;;
25349;SDS011;13302;48.796;11.978;2023-02-18T09:28:27;0.90;;;0.90;;
25349;SDS011;13302;48.796;11.978;2023-02-18T09:31:16;0.80;;;0.80;;
25349;SDS011;13302;48.796;11.978;2023-02-18T09:34:05;0.90;;;0.90;;
25349;SDS011;13302;48.796;11.978;2023-02-18T09:36:52;0.73;;;0.73;;
25349;SDS011;13302;48.796;11.978;2023-02-18T09:39:39;1.50;;;1.40;;
25349;SDS011;13302;48.796;11.978;2023-02-18T09:42:30;0.97;;;0.97;;
25349;SDS011;13302;48.796;11.978;2023-02-18T09:45:19;1.00;;;1.00;;
25349;SDS011;13302;48.796;11.978;2023-02-18T09:48:07;1.10;;;1.10;;
25349;SDS011;13302;48.796;11.978;2023-02-18T09:50:55;0.77;;;0.77;;
25349;SDS011;13302;48.796;11.978;2023-02-18T09:53:43;1.00;;;1.00;;
25349;SDS011;13302;48.796;11.978;2023-02-18T09:56:32;1.90;;;1.70;;
25349;SDS011;13302;48.796;11.978;2023-02-18T09:59:25;1.40;;;1.30;;
25349;SDS011;13302;48.796;11.978;2023-02-18T10:02:13;1.37;;;1.37;;
25349;SDS011;13302;48.796;11.978;2023-02-18T10:05:03;0.90;;;0.90;;
25349;SDS011;13302;48.796;11.978;2023-02-18T10:07:51;1.10;;;1.10;;
25349;SDS011;13302;48.796;11.978;2023-02-18T10:10:42;0.87;;;0.87;;
25349;SDS011;13302;48.796;11.978;2023-02-18T10:13:32;1.10;;;1.03;;
25349;SDS011;13302;48.796;11.978;2023-02-18T10:16:20;1.13;;;1.13;;
25349;SDS011;13302;48.796;11.978;2023-02-18T10:22:20;1.00;;;1.00;;
25349;SDS011;13302;48.796;11.978;2023-02-18T10:25:14;1.00;;;1.00;;
25349;SDS011;13302;48.796;11.978;2023-02-18T10:28:04;1.10;;;1.00;;
25349;SDS011;13302;48.796;11.978;2023-02-18T10:30:56;1.00;;;1.00;;
25349;SDS011;13302;48.796;11.978;2023-02-18T10:36:48;0.93;;;0.93;;
25349;SDS011;13302;48.796;11.978;2023-02-18T10:39:44;0.90;;;0.90;;
25349;SDS011;13302;48.796;11.978;2023-02-18T10:42:49;1.00;;;1.00;;
25349;SDS011;13302;48.796;11.978;2023-02-18T10:45:54;1.20;;;1.20;;
25349;SDS011;13302;48.796;11.978;2023-02-18T10:51:49;2.00;;;1.90;;
25349;SDS011;13302;48.796;11.978;2023-02-18T10:54:48;1.23;;;1.23;;
25349;SDS011;13302;48.796;11.978;2023-02-18T10:57:59;1.10;;;1.10;;
25349;SDS011;13302;48.796;11.978;2023-02-18T11:00:46;1.30;;;1.20;;
25349;SDS011;13302;48.796;11.978;2023-02-18T11:03:46;1.70;;;1.60;;
25349;SDS011;13302;48.796;11.978;2023-02-18T11:06:40;1.60;;;1.50;;
25349;SDS011;13302;48.796;11.978;2023-02-18T11:09:49;1.00;;;1.00;;
25349;SDS011;13302;48.796;11.978;2023-02-18T11:15:32;1.20;;;1.20;;
25349;SDS011;13302;48.796;11.978;2023-02-18T11:18:39;0.87;;;0.87;;
25349;SDS011;13302;48.796;11.978;2023-02-18T11:21:30;0.90;;;0.90;;
25349;SDS011;13302;48.796;11.978;2023-02-18T11:24:21;1.00;;;1.00;;
25349;SDS011;13302;48.796;11.978;2023-02-18T11:27:10;0.80;;;0.80;;
25349;SDS011;13302;48.796;11.978;2023-02-18T11:30:20;0.80;;;0.80;;
25349;SDS011;13302;48.796;11.978;2023-02-18T11:33:18;0.90;;;0.90;;
25349;SDS011;13302;48.796;11.978;2023-02-18T11:39:25;2.67;;;1.00;;
25349;SDS011;13302;48.796;11.978;2023-02-18T11:42:13;1.43;;;0.90;;
25349;SDS011;13302;48.796;11.978;2023-02-18T11:45:02;1.17;;;0.70;;
25349;SDS011;13302;48.796;11.978;2023-02-18T11:47:57;0.80;;;0.80;;
25349;SDS011;13302;48.796;11.978;2023-02-18T11:50:52;0.60;;;0.60;;
25349;SDS011;13302;48.796;11.978;2023-02-18T11:53:49;0.80;;;0.80;;
25349;SDS011;13302;48.796;11.978;2023-02-18T11:56:53;0.80;;;0.80;;
25349;SDS011;13302;48.796;11.978;2023-02-18T12:00:00;0.77;;;0.77;;
25349;SDS011;13302;48.796;11.978;2023-02-18T12:02:54;0.63;;;0.60;;
25349;SDS011;13302;48.796;11.978;2023-02-18T12:05:45;0.60;;;0.60;;
25349;SDS011;13302;48.796;11.978;2023-02-18T12:08:34;0.87;;;0.87;;
25349;SDS011;13302;48.796;11.978;2023-02-18T12:11:35;0.50;;;0.50;;
25349;SDS011;13302;48.796;11.978;2023-02-18T12:14:27;0.60;;;0.60;;
25349;SDS011;13302;48.796;11.978;2023-02-18T12:20:38;0.83;;;0.83;;
25349;SDS011;13302;48.796;11.978;2023-02-18T12:27:36;0.70;;;0.70;;
25349;SDS011;13302;48.796;11.978;2023-02-18T12:30:40;0.80;;;0.80;;
25349;SDS011;13302;48.796;11.978;2023-02-18T12:37:02;0.73;;;0.70;;
25349;SDS011;13302;48.796;11.978;2023-02-18T12:49:34;0.57;;;0.57;;
25349;SDS011;13302;48.796;11.978;2023-02-18T12:52:50;0.87;;;0.87;;
25349;SDS011;13302;48.796;11.978;2023-02-18T12:56:02;0.70;;;0.70;;
25349;SDS011;13302;48.796;11.978;2023-02-18T13:14:47;1.30;;;0.70;;
25349;SDS011;13302;48.796;11.978;2023-02-18T13:17:42;0.90;;;0.90;;
25349;SDS011;13302;48.796;11.978;2023-02-18T13:20:36;0.70;;;0.70;;
25349;SDS011;13302;48.796;11.978;2023-02-18T13:23:29;0.93;;;0.80;;
25349;SDS011;13302;48.796;11.978;2023-02-18T13:26:20;0.80;;;0.80;;
25349;SDS011;13302;48.796;11.978;2023-02-18T13:32:05;0.70;;;0.70;;
25349;SDS011;13302;48.796;11.978;2023-02-18T13:38:23;4.07;;;1.13;;
25349;SDS011;13302;48.796;11.978;2023-02-18T13:41:12;0.70;;;0.70;;
25349;SDS011;13302;48.796;11.978;2023-02-18T13:43:59;0.70;;;0.70;;
25349;SDS011;13302;48.796;11.978;2023-02-18T13:46:47;0.80;;;0.80;;
25349;SDS011;13302;48.796;11.978;2023-02-18T13:49:39;0.60;;;0.60;;
25349;SDS011;13302;48.796;11.978;2023-02-18T13:52:26;1.53;;;0.80;;
25349;SDS011;13302;48.796;11.978;2023-02-18T13:55:25;0.80;;;0.80;;
25349;SDS011;13302;48.796;11.978;2023-02-18T13:58:19;0.53;;;0.53;;
25349;SDS011;13302;48.796;11.978;2023-02-18T14:03:57;0.60;;;0.60;;
25349;SDS011;13302;48.796;11.978;2023-02-18T14:13:00;0.90;;;0.90;;
25349;SDS011;13302;48.796;11.978;2023-02-18T14:16:08;0.70;;;0.70;;
25349;SDS011;13302;48.796;11.978;2023-02-18T14:18:57;0.97;;;0.60;;
25349;SDS011;13302;48.796;11.978;2023-02-18T14:21:45;0.70;;;0.70;;
25349;SDS011;13302;48.796;11.978;2023-02-18T14:24:42;0.70;;;0.70;;
25349;SDS011;13302;48.796;11.978;2023-02-18T14:27:34;0.70;;;0.70;;
25349;SDS011;13302;48.796;11.978;2023-02-18T14:30:25;0.83;;;0.83;;
25349;SDS011;13302;48.796;11.978;2023-02-18T14:33:26;0.73;;;0.73;;
25349;SDS011;13302;48.796;11.978;2023-02-18T14:52:16;0.93;;;0.90;;
25349;SDS011;13302;48.796;11.978;2023-02-18T14:55:18;1.07;;;0.97;;
25349;SDS011;13302;48.796;11.978;2023-02-18T14:58:52;0.80;;;0.80;;
25349;SDS011;13302;48.796;11.978;2023-02-18T15:01:26;1.03;;;1.03;;
25349;SDS011;13302;48.796;11.978;2023-02-18T15:04:18;1.20;;;1.20;;
25349;SDS011;13302;48.796;11.978;2023-02-18T15:07:07;2.40;;;1.30;;
25349;SDS011;13302;48.796;11.978;2023-02-18T15:09:55;1.10;;;1.10;;
25349;SDS011;13302;48.796;11.978;2023-02-18T15:12:43;1.23;;;1.23;;
25349;SDS011;13302;48.796;11.978;2023-02-18T15:15:30;0.90;;;0.90;;
25349;SDS011;13302;48.796;11.978;2023-02-18T15:18:27;1.00;;;1.00;;
25349;SDS011;13302;48.796;11.978;2023-02-18T15:21:17;0.80;;;0.80;;
25349;SDS011;13302;48.796;11.978;2023-02-18T15:24:26;0.67;;;0.67;;
25349;SDS011;13302;48.796;11.978;2023-02-18T15:33:10;0.90;;;0.90;;
25349;SDS011;13302;48.796;11.978;2023-02-18T15:35:59;1.17;;;0.80;;
25349;SDS011;13302;48.796;11.978;2023-02-18T15:38:50;3.50;;;3.20;;
25349;SDS011;13302;48.796;11.978;2023-02-18T15:41:37;2.30;;;2.20;;
25349;SDS011;13302;48.796;11.978;2023-02-18T15:44:26;1.70;;;1.17;;
25349;SDS011;13302;48.796;11.978;2023-02-18T15:47:14;1.13;;;1.13;;
25349;SDS011;13302;48.796;11.978;2023-02-18T15:50:03;1.20;;;1.20;;
25349;SDS011;13302;48.796;11.978;2023-02-18T15:52:52;1.10;;;1.10;;
25349;SDS011;13302;48.796;11.978;2023-02-18T15:55:42;0.90;;;0.90;;
25349;SDS011;13302;48.796;11.978;2023-02-18T15:58:32;0.87;;;0.87;;
25349;SDS011;13302;48.796;11.978;2023-02-18T16:01:26;0.93;;;0.90;;
25349;SDS011;13302;48.796;11.978;2023-02-18T16:04:14;0.90;;;0.90;;
25349;SDS011;13302;48.796;11.978;2023-02-18T16:07:03;1.00;;;1.00;;
25349;SDS011;13302;48.796;11.978;2023-02-18T16:10:07;1.67;;;1.60;;
25349;SDS011;13302;48.796;11.978;2023-02-18T16:13:02;1.40;;;1.30;;
25349;SDS011;13302;48.796;11.978;2023-02-18T16:15:50;1.63;;;1.53;;
25349;SDS011;13302;48.796;11.978;2023-02-18T16:18:39;1.80;;;1.70;;
25349;SDS011;13302;48.796;11.978;2023-02-18T16:21:31;2.50;;;2.30;;
25349;SDS011;13302;48.796;11.978;2023-02-18T16:24:24;2.00;;;1.90;;
25349;SDS011;13302;48.796;11.978;2023-02-18T16:27:14;3.17;;;2.90;;
25349;SDS011;13302;48.796;11.978;2023-02-18T16:30:36;4.60;;;3.30;;
25349;SDS011;13302;48.796;11.978;2023-02-18T16:33:20;3.13;;;2.83;;
25349;SDS011;13302;48.796;11.978;2023-02-18T16:36:09;6.37;;;5.30;;
25349;SDS011;13302;48.796;11.978;2023-02-18T16:39:01;3.50;;;3.20;;
25349;SDS011;13302;48.796;11.978;2023-02-18T16:41:48;3.63;;;3.27;;
25349;SDS011;13302;48.796;11.978;2023-02-18T16:44:35;3.43;;;3.13;;
25349;SDS011;13302;48.796;11.978;2023-02-18T16:47:22;3.37;;;3.10;;
25349;SDS011;13302;48.796;11.978;2023-02-18T16:50:13;2.17;;;2.07;;
25349;SDS011;13302;48.796;11.978;2023-02-18T16:53:06;2.00;;;1.70;;
25349;SDS011;13302;48.796;11.978;2023-02-18T16:55:53;1.60;;;1.60;;
25349;SDS011;13302;48.796;11.978;2023-02-18T16:58:41;2.20;;;2.10;;
25349;SDS011;13302;48.796;11.978;2023-02-18T17:01:29;3.10;;;2.90;;
25349;SDS011;13302;48.796;11.978;2023-02-18T17:04:18;2.57;;;2.37;;
25349;SDS011;13302;48.796;11.978;2023-02-18T17:07:08;1.97;;;1.87;;
25349;SDS011;13302;48.796;11.978;2023-02-18T17:09:56;1.47;;;1.40;;
25349;SDS011;13302;48.796;11.978;2023-02-18T17:12:43;1.70;;;1.60;;
25349;SDS011;13302;48.796;11.978;2023-02-18T17:15:32;1.90;;;1.80;;
25349;SDS011;13302;48.796;11.978;2023-02-18T17:18:21;2.93;;;2.50;;
25349;SDS011;13302;48.796;11.978;2023-02-18T17:21:10;1.87;;;1.80;;
25349;SDS011;13302;48.796;11.978;2023-02-18T17:23:59;1.70;;;1.60;;
25349;SDS011;13302;48.796;11.978;2023-02-18T17:26:46;1.40;;;1.30;;
25349;SDS011;13302;48.796;11.978;2023-02-18T17:29:33;2.13;;;2.03;;
25349;SDS011;13302;48.796;11.978;2023-02-18T17:32:20;2.17;;;2.07;;
25349;SDS011;13302;48.796;11.978;2023-02-18T17:35:08;2.03;;;1.93;;
25349;SDS011;13302;48.796;11.978;2023-02-18T17:38:00;1.80;;;1.70;;
25349;SDS011;13302;48.796;11.978;2023-02-18T17:40:47;1.87;;;1.80;;
25349;SDS011;13302;48.796;11.978;2023-02-18T17:43:36;1.73;;;1.47;;
25349;SDS011;13302;48.796;11.978;2023-02-18T17:46:23;1.90;;;1.47;;
25349;SDS011;13302;48.796;11.978;2023-02-18T17:49:11;1.40;;;1.40;;
25349;SDS011;13302;48.796;11.978;2023-02-18T17:51:58;1.77;;;1.67;;
25349;SDS011;13302;48.796;11.978;2023-02-18T17:54:46;2.00;;;1.83;;
25349;SDS011;13302;48.796;11.978;2023-02-18T17:57:33;1.73;;;1.63;;
25349;SDS011;13302;48.796;11.978;2023-02-18T18:00:21;1.27;;;1.27;;
25349;SDS011;13302;48.796;11.978;2023-02-18T18:03:14;1.50;;;1.40;;
25349;SDS011;13302;48.796;11.978;2023-02-18T18:06:02;1.70;;;1.60;;
25349;SDS011;13302;48.796;11.978;2023-02-18T18:08:50;1.17;;;1.10;;
25349;SDS011;13302;48.796;11.978;2023-02-18T18:11:37;1.50;;;1.50;;
25349;SDS011;13302;48.796;11.978;2023-02-18T18:14:24;1.40;;;1.40;;
25349;SDS011;13302;48.796;11.978;2023-02-18T18:17:11;1.60;;;1.60;;
25349;SDS011;13302;48.796;11.978;2023-02-18T18:19:59;1.30;;;1.30;;
25349;SDS011;13302;48.796;11.978;2023-02-18T18:22:46;1.30;;;1.30;;
25349;SDS011;13302;48.796;11.978;2023-02-18T18:28:24;0.97;;;0.97;;
25349;SDS011;13302;48.796;11.978;2023-02-18T18:31:13;0.97;;;0.97;;
25349;SDS011;13302;48.796;11.978;2023-02-18T18:34:03;1.50;;;1.50;;
25349;SDS011;13302;48.796;11.978;2023-02-18T18:36:50;1.10;;;1.10;;
25349;SDS011;13302;48.796;11.978;2023-02-18T18:39:37;1.43;;;1.37;;
25349;SDS011;13302;48.796;11.978;2023-02-18T18:42:24;1.87;;;1.77;;
25349;SDS011;13302;48.796;11.978;2023-02-18T18:45:19;1.43;;;1.43;;
25349;SDS011;13302;48.796;11.978;2023-02-18T18:48:09;1.40;;;1.40;;
25349;SDS011;13302;48.796;11.978;2023-02-18T18:50:56;1.80;;;1.70;;
25349;SDS011;13302;48.796;11.978;2023-02-18T18:53:44;2.10;;;1.97;;
25349;SDS011;13302;48.796;11.978;2023-02-18T18:56:31;1.50;;;1.40;;
25349;SDS011;13302;48.796;11.978;2023-02-18T18:59:18;1.87;;;1.77;;
25349;SDS011;13302;48.796;11.978;2023-02-18T19:02:08;1.80;;;1.70;;
25349;SDS011;13302;48.796;11.978;2023-02-18T19:05:02;1.53;;;1.50;;